createdAt,value
2023-10-10T00:02:20.048Z,7.36
2023-10-10T00:07:28.873Z,7.33
2023-10-10T00:12:36.641Z,7.31
2023-10-10T00:17:44.219Z,7.32
2023-10-10T00:22:59.786Z,7.33
2023-10-10T00:28:17.833Z,7.33
2023-10-10T00:33:24.425Z,7.34
2023-10-10T00:38:31.166Z,7.36
2023-10-10T00:43:38.310Z,7.35
2023-10-10T00:48:46.014Z,7.33
2023-10-10T00:54:12.844Z,7.30
2023-10-10T00:59:18.516Z,7.27
2023-10-10T01:04:36.976Z,7.29
2023-10-10T01:09:57.337Z,7.30
2023-10-10T01:15:09.662Z,7.32
2023-10-10T01:20:27.214Z,7.33
2023-10-10T01:25:46.690Z,7.35
2023-10-10T01:31:05.783Z,7.35
2023-10-10T01:36:20.537Z,7.33
2023-10-10T01:41:33.207Z,7.32
2023-10-10T01:46:39.246Z,7.34
2023-10-10T01:51:46.677Z,7.34
2023-10-10T01:56:54.909Z,7.32
2023-10-10T02:02:00.944Z,7.33
2023-10-10T02:07:17.229Z,7.33
2023-10-10T02:12:23.770Z,7.33
2023-10-10T02:17:31.417Z,7.33
2023-10-10T02:22:48.951Z,7.32
2023-10-10T02:27:57.668Z,7.30
2023-10-10T02:33:04.300Z,7.31
2023-10-10T02:38:13.183Z,7.33
2023-10-10T02:43:34.382Z,7.31
2023-10-10T02:48:43.631Z,7.32
2023-10-10T02:53:49.364Z,7.34
2023-10-10T02:58:55.804Z,7.35
2023-10-10T03:04:04.570Z,7.36
2023-10-10T03:09:15.880Z,7.34
2023-10-10T03:14:28.375Z,7.33
2023-10-10T03:19:40.106Z,7.32
2023-10-10T03:25:09.446Z,7.31
2023-10-10T03:30:23.363Z,7.29
2023-10-10T03:35:45.864Z,7.27
2023-10-10T03:41:05.452Z,7.27
2023-10-10T03:46:43.290Z,7.26
2023-10-10T03:52:21.198Z,7.26
2023-10-10T03:57:44.274Z,7.27
2023-10-10T04:03:07.510Z,7.28
2023-10-10T04:08:31.173Z,7.32
2023-10-10T04:13:54.424Z,7.34
2023-10-10T04:19:17.768Z,7.34
2023-10-10T04:24:41.333Z,7.34
2023-10-10T04:30:04.771Z,7.34
2023-10-10T04:35:28.329Z,7.35
2023-10-10T04:41:06.881Z,7.37
2023-10-10T04:46:36.758Z,7.37
2023-10-10T04:52:00.006Z,7.36
2023-10-10T04:57:23.231Z,7.36
2023-10-10T05:02:46.236Z,7.35
2023-10-10T05:08:11.193Z,7.36
2023-10-10T05:13:34.845Z,7.37
2023-10-10T05:18:58.307Z,7.37
2023-10-10T05:24:04.127Z,7.37
2023-10-10T05:29:12.114Z,7.39
2023-10-10T05:34:18.170Z,7.38
2023-10-10T05:39:24.104Z,7.38
2023-10-10T05:44:30.839Z,7.41
2023-10-10T05:49:38.069Z,7.44
2023-10-10T05:54:43.855Z,7.47
2023-10-10T05:59:49.669Z,7.47
2023-10-10T06:04:55.996Z,7.51
2023-10-10T06:10:07.167Z,7.54
2023-10-10T06:15:13.146Z,7.59
2023-10-10T06:20:27.377Z,7.67
2023-10-10T06:25:34.064Z,7.75
2023-10-10T06:30:40.556Z,7.80
2023-10-10T06:35:53.986Z,7.83
2023-10-10T06:41:00.702Z,7.83
2023-10-10T06:46:07.460Z,7.85
2023-10-10T06:51:13.367Z,7.92
2023-10-10T06:56:19.221Z,7.97
2023-10-10T07:01:25.797Z,7.98
2023-10-10T07:06:32.075Z,8.02
2023-10-10T07:11:40.441Z,8.06
2023-10-10T07:16:46.244Z,8.07
2023-10-10T07:21:53.160Z,8.11
2023-10-10T07:27:07.280Z,8.16
2023-10-10T07:32:18.319Z,8.22
2023-10-10T07:37:24.990Z,8.28
2023-10-10T07:42:32.468Z,8.29
2023-10-10T07:47:58.785Z,8.31
2023-10-10T07:53:07.349Z,8.35
2023-10-10T07:58:15.299Z,8.40
2023-10-10T08:03:21.641Z,8.47
2023-10-10T08:08:28.633Z,8.52
2023-10-10T08:13:34.320Z,8.58
2023-10-10T08:18:53.910Z,8.65
2023-10-10T08:24:00.520Z,8.71
2023-10-10T08:29:08.356Z,8.75
2023-10-10T08:34:16.255Z,8.77
2023-10-10T08:39:27.398Z,8.82
2023-10-10T08:44:37.354Z,8.89
2023-10-10T08:49:43.439Z,8.96
2023-10-10T08:54:49.161Z,9.03
2023-10-10T08:59:55.992Z,9.07
2023-10-10T09:05:02.013Z,9.12
2023-10-10T09:10:07.817Z,9.18
2023-10-10T09:15:18.430Z,9.25
2023-10-10T09:20:30.453Z,9.29
2023-10-10T09:25:44.129Z,9.35
2023-10-10T09:31:00.487Z,9.46
2023-10-10T09:36:10.639Z,9.67
2023-10-10T09:41:29.734Z,9.80
2023-10-10T09:47:00.985Z,9.86
2023-10-10T09:52:26.491Z,9.95
2023-10-10T09:57:33.362Z,10.02
2023-10-10T10:02:45.308Z,10.06
2023-10-10T10:08:02.286Z,10.08
2023-10-10T10:13:25.516Z,10.14
2023-10-10T10:18:45.829Z,10.18
2023-10-10T10:23:57.895Z,10.26
2023-10-10T10:29:17.397Z,10.34
2023-10-10T10:34:32.537Z,10.41
2023-10-10T10:39:39.135Z,10.51
2023-10-10T10:44:48.501Z,10.61
2023-10-10T10:49:57.469Z,10.68
2023-10-10T10:55:23.208Z,10.71
2023-10-10T11:00:58.433Z,10.78
2023-10-10T11:06:07.889Z,10.84
2023-10-10T11:11:27.256Z,10.87
2023-10-10T11:16:39.765Z,10.93
2023-10-10T11:21:50.072Z,10.97
2023-10-10T11:27:16.405Z,11.01
2023-10-10T11:32:26.644Z,11.07
2023-10-10T11:37:43.876Z,11.12
2023-10-10T11:42:51.776Z,11.14
2023-10-10T11:48:02.502Z,11.15
2023-10-10T11:53:09.353Z,11.18
2023-10-10T11:58:18.891Z,11.23
2023-10-10T12:03:43.684Z,11.29
2023-10-10T12:08:51.843Z,11.33
2023-10-10T12:13:57.968Z,11.39
2023-10-10T12:19:07.200Z,11.42
2023-10-10T12:24:13.655Z,11.47
2023-10-10T12:29:19.690Z,11.51
2023-10-10T12:34:26.723Z,11.61
2023-10-10T12:39:33.029Z,11.75
2023-10-10T12:44:38.890Z,11.88
2023-10-10T12:49:46.310Z,12.01
2023-10-10T12:54:59.970Z,12.11
2023-10-10T13:00:23.715Z,12.23
2023-10-10T13:05:29.746Z,12.31
2023-10-10T13:10:38.970Z,12.35
2023-10-10T13:15:53.639Z,12.35
2023-10-10T13:21:01.682Z,12.34
2023-10-10T13:26:07.547Z,12.36
2023-10-10T13:31:13.521Z,12.40
2023-10-10T13:36:19.376Z,12.47
2023-10-10T13:41:30.971Z,12.51
2023-10-10T13:46:37.585Z,12.55
2023-10-10T13:51:43.859Z,12.61
2023-10-10T13:56:51.815Z,12.67
2023-10-10T14:02:04.496Z,12.72
2023-10-10T14:07:12.620Z,12.75
2023-10-10T14:12:22.244Z,12.78
2023-10-10T14:17:28.170Z,12.81
2023-10-10T14:22:49.490Z,12.86
2023-10-10T14:27:59.704Z,12.90
2023-10-10T14:33:05.808Z,12.93
2023-10-10T14:38:14.384Z,12.95
2023-10-10T14:43:20.917Z,13.00
2023-10-10T14:48:27.033Z,13.00
2023-10-10T14:53:36.144Z,12.99
2023-10-10T14:58:42.459Z,13.00
2023-10-10T15:03:51.765Z,13.01
2023-10-10T15:08:57.978Z,12.98
2023-10-10T15:14:07.840Z,12.95
2023-10-10T15:19:13.740Z,12.90
2023-10-10T15:24:20.632Z,12.84
2023-10-10T15:29:29.742Z,12.79
2023-10-10T15:34:35.519Z,12.75
2023-10-10T15:39:40.560Z,12.72
2023-10-10T15:44:48.481Z,12.67
2023-10-10T15:50:01.544Z,12.61
2023-10-10T15:55:12.215Z,12.56
2023-10-10T16:00:22.318Z,12.53
2023-10-10T16:05:28.408Z,12.50
2023-10-10T16:10:37.011Z,12.46
2023-10-10T16:15:44.249Z,12.43
2023-10-10T16:20:49.430Z,12.40
2023-10-10T16:25:55.276Z,12.38
2023-10-10T16:30:59.328Z,12.35
2023-10-10T16:36:04.267Z,12.33
2023-10-10T16:41:09.992Z,12.31
2023-10-10T16:46:14.173Z,12.29
2023-10-10T16:51:21.902Z,12.29
2023-10-10T16:56:28.642Z,12.29
2023-10-10T17:01:35.978Z,12.29
2023-10-10T17:06:41.961Z,12.27
2023-10-10T17:11:52.421Z,12.25
2023-10-10T17:16:58.921Z,12.23
2023-10-10T17:22:04.675Z,12.21
2023-10-10T17:27:10.711Z,12.20
2023-10-10T17:32:17.316Z,12.18
2023-10-10T17:37:24.133Z,12.15
2023-10-10T17:42:30.083Z,12.13
2023-10-10T17:47:34.203Z,12.11
2023-10-10T17:52:39.898Z,12.09
2023-10-10T17:57:45.620Z,12.07
2023-10-10T18:02:51.480Z,12.05
2023-10-10T18:07:59.314Z,12.01
2023-10-10T18:13:06.097Z,11.98
2023-10-10T18:18:12.093Z,11.94
2023-10-10T18:23:17.776Z,11.91
2023-10-10T18:28:23.670Z,11.86
2023-10-10T18:33:29.426Z,11.81
2023-10-10T18:38:35.069Z,11.78
2023-10-10T18:43:43.490Z,11.74
2023-10-10T18:48:49.637Z,11.71
2023-10-10T18:53:57.140Z,11.66
2023-10-10T18:59:02.891Z,11.62
2023-10-10T19:04:09.500Z,11.58
2023-10-10T19:09:19.703Z,11.52
2023-10-10T19:14:28.221Z,11.48
2023-10-10T19:19:34.086Z,11.42
2023-10-10T19:24:41.029Z,11.34
2023-10-10T19:29:46.794Z,11.25
2023-10-10T19:34:51.783Z,11.16
2023-10-10T19:39:57.417Z,11.09
2023-10-10T19:45:24.478Z,11.02
2023-10-10T19:50:32.075Z,10.95
2023-10-10T19:55:38.816Z,10.90
2023-10-10T20:00:47.946Z,10.88
2023-10-10T20:05:54.436Z,10.87
2023-10-10T20:11:01.104Z,10.85
2023-10-10T20:16:16.178Z,10.82
2023-10-10T20:21:22.094Z,10.81
2023-10-10T20:26:28.939Z,10.78
2023-10-10T20:31:34.848Z,10.72
2023-10-10T20:36:40.550Z,10.68
2023-10-10T20:41:49.879Z,10.61
2023-10-10T20:46:56.329Z,10.56
2023-10-10T20:52:02.742Z,10.52
2023-10-10T20:57:08.563Z,10.47
2023-10-10T21:02:14.352Z,10.45
2023-10-10T21:07:21.300Z,10.43
2023-10-10T21:12:27.236Z,10.39
2023-10-10T21:17:34.110Z,10.31
2023-10-10T21:22:40.121Z,10.24
2023-10-10T21:27:50.840Z,10.21
2023-10-10T21:32:57.752Z,10.18
2023-10-10T21:38:03.987Z,10.19
2023-10-10T21:43:09.630Z,10.21
2023-10-10T21:48:15.488Z,10.25
2023-10-10T21:53:21.359Z,10.27
2023-10-10T21:58:27.377Z,10.26
2023-10-10T22:03:34.267Z,10.22
2023-10-10T22:08:40.463Z,10.17
2023-10-10T22:13:49.843Z,10.09
2023-10-10T22:18:59.075Z,10.04
2023-10-10T22:24:05.972Z,9.99
2023-10-10T22:29:12.531Z,9.94
2023-10-10T22:34:19.173Z,9.88
2023-10-10T22:39:26.336Z,9.85
2023-10-10T22:44:32.071Z,9.81
2023-10-10T22:49:37.804Z,9.80
2023-10-10T22:54:43.505Z,9.79
2023-10-10T22:59:49.287Z,9.75
2023-10-10T23:04:55.095Z,9.71
2023-10-10T23:10:01.524Z,9.66
2023-10-10T23:15:12.900Z,9.63
2023-10-10T23:20:21.306Z,9.61
2023-10-10T23:25:27.660Z,9.56
2023-10-10T23:30:34.399Z,9.48
2023-10-10T23:35:40.624Z,9.43
2023-10-10T23:40:46.794Z,9.43
2023-10-10T23:45:58.183Z,9.43
2023-10-10T23:51:08.432Z,9.44
2023-10-10T23:56:14.463Z,9.46
